createdAt,value
2022-08-29T00:03:19.852Z,1016.1
2022-08-29T00:08:19.977Z,1016.1
2022-08-29T00:13:20.104Z,1015.9
2022-08-29T00:18:20.330Z,1015.9
2022-08-29T00:23:20.614Z,1016.1
2022-08-29T00:28:19.702Z,1016.1
2022-08-29T00:33:19.744Z,1016.1
2022-08-29T00:38:19.868Z,1016.1
2022-08-29T00:43:19.933Z,1016.2
2022-08-29T00:48:20.049Z,1016.2
2022-08-29T00:53:20.116Z,1016.2
2022-08-29T00:58:20.292Z,1016.2
2022-08-29T01:03:20.354Z,1016.2
2022-08-29T01:08:20.510Z,1016.2
2022-08-29T01:13:19.699Z,1016.2
2022-08-29T01:18:19.848Z,1016.2
2022-08-29T01:23:20.108Z,1016.2
2022-08-29T01:28:20.274Z,1016.2
2022-08-29T01:33:20.499Z,1016.2
2022-08-29T01:38:19.809Z,1016.2
2022-08-29T01:43:20.013Z,1016.3
2022-08-29T01:48:20.254Z,1016.3
2022-08-29T01:53:20.543Z,1016.3
2022-08-29T01:58:20.656Z,1016.3
2022-08-29T02:03:19.994Z,1016.3
2022-08-29T02:08:20.423Z,1016.3
2022-08-29T02:13:19.830Z,1016.3
2022-08-29T02:18:20.089Z,1016.3
2022-08-29T02:23:30.540Z,1016.3
2022-08-29T02:28:20.561Z,1016.3
2022-08-29T02:33:20.006Z,1016.3
2022-08-29T02:38:20.430Z,1016.3
2022-08-29T02:43:20.732Z,1016.2
2022-08-29T02:48:19.975Z,1016.2
2022-08-29T02:53:20.274Z,1016.2
2022-08-29T02:58:20.129Z,1016.2
2022-08-29T03:03:20.208Z,1016.2
2022-08-29T03:08:20.181Z,1016.2
2022-08-29T03:13:20.026Z,1016
2022-08-29T03:18:20.731Z,1016
2022-08-29T03:23:20.633Z,1015.9
2022-08-29T03:28:20.338Z,1015.9
2022-08-29T03:33:19.933Z,1015.9
2022-08-29T03:38:20.518Z,1015.9
2022-08-29T03:43:20.320Z,1016.1
2022-08-29T03:48:25.026Z,1016.1
2022-08-29T03:53:20.683Z,1016.3
2022-08-29T03:58:19.964Z,1016.3
2022-08-29T04:03:24.952Z,1016.3
2022-08-29T04:08:20.107Z,1016.3
2022-08-29T04:13:20.583Z,1016.3
2022-08-29T04:18:21.379Z,1016.3
2022-08-29T04:23:20.031Z,1016.3
2022-08-29T04:28:20.209Z,1016.3
2022-08-29T04:33:22.773Z,1016.3
2022-08-29T04:38:20.220Z,1016.3
2022-08-29T04:43:20.514Z,1016.3
2022-08-29T04:48:20.236Z,1016.3
2022-08-29T04:53:20.509Z,1016.5
2022-08-29T04:58:20.781Z,1016.5
2022-08-29T05:03:20.640Z,1016.5
2022-08-29T05:08:19.982Z,1016.5
2022-08-29T05:13:20.442Z,1016.6
2022-08-29T05:18:22.948Z,1016.6
2022-08-29T05:23:20.269Z,1016.8
2022-08-29T05:28:20.011Z,1016.8
2022-08-29T05:33:20.618Z,1016.8
2022-08-29T05:38:20.779Z,1016.8
2022-08-29T05:43:20.124Z,1016.8
2022-08-29T05:48:20.286Z,1016.8
2022-08-29T05:53:20.530Z,1016.9
2022-08-29T05:58:20.330Z,1016.9
2022-08-29T06:03:20.228Z,1016.9
2022-08-29T06:08:20.400Z,1016.9
2022-08-29T06:13:20.849Z,1017
2022-08-29T06:18:22.329Z,1017
2022-08-29T06:23:20.042Z,1017
2022-08-29T06:28:23.951Z,1017
2022-08-29T06:33:20.295Z,1017
2022-08-29T06:38:21.002Z,1017
2022-08-29T06:43:20.427Z,1017.1
2022-08-29T06:48:20.077Z,1017.1
2022-08-29T06:53:31.129Z,1017.3
2022-08-29T06:58:20.289Z,1017.3
2022-08-29T07:03:20.775Z,1017.3
2022-08-29T07:08:20.242Z,1017.3
2022-08-29T07:13:20.444Z,1017.3
2022-08-29T07:18:20.781Z,1017.3
2022-08-29T07:23:20.897Z,1017.3
2022-08-29T07:28:20.407Z,1017.3
2022-08-29T07:33:20.631Z,1017.3
2022-08-29T07:38:20.847Z,1017.3
2022-08-29T07:43:23.003Z,1017.3
2022-08-29T07:48:23.058Z,1017.3
2022-08-29T07:53:20.804Z,1017.3
2022-08-29T07:58:20.882Z,1017.3
2022-08-29T08:03:20.042Z,1017.3
2022-08-29T08:08:20.302Z,1017.3
2022-08-29T08:13:20.858Z,1017.4
2022-08-29T08:18:20.138Z,1017.4
2022-08-29T08:23:20.484Z,1017.5
2022-08-29T08:28:20.740Z,1017.5
2022-08-29T08:33:20.902Z,1017.6
2022-08-29T08:38:21.025Z,1017.6
2022-08-29T08:43:26.739Z,1017.7
2022-08-29T08:48:20.211Z,1017.7
2022-08-29T08:53:20.422Z,1017.8
2022-08-29T08:58:27.244Z,1017.8
2022-08-29T09:03:20.247Z,1017.8
2022-08-29T09:08:20.727Z,1017.8
2022-08-29T09:13:20.850Z,1017.8
2022-08-29T09:18:23.902Z,1017.8
2022-08-29T09:23:20.497Z,1017.9
2022-08-29T09:28:20.170Z,1017.9
2022-08-29T09:33:20.376Z,1017.9
2022-08-29T09:38:20.869Z,1017.9
2022-08-29T09:43:20.623Z,1017.8
2022-08-29T09:48:20.938Z,1017.8
2022-08-29T09:53:25.203Z,1017.9
2022-08-29T09:58:20.853Z,1017.9
2022-08-29T10:03:20.039Z,1017.9
2022-08-29T10:08:20.447Z,1017.9
2022-08-29T10:13:20.864Z,1018
2022-08-29T10:18:20.098Z,1018
2022-08-29T10:23:20.494Z,1018.3
2022-08-29T10:28:20.898Z,1018.3
2022-08-29T10:33:20.265Z,1018.3
2022-08-29T10:38:20.536Z,1018.3
2022-08-29T10:43:20.989Z,1018.3
2022-08-29T10:48:20.291Z,1018.3
2022-08-29T10:53:20.688Z,1018.3
2022-08-29T10:58:20.249Z,1018.3
2022-08-29T11:03:20.738Z,1018.3
2022-08-29T11:08:21.299Z,1018.3
2022-08-29T11:13:20.213Z,1018.4
2022-08-29T11:18:22.373Z,1018.4
2022-08-29T11:23:20.856Z,1018.4
2022-08-29T11:28:21.063Z,1018.4
2022-08-29T11:33:20.355Z,1018.4
2022-08-29T11:38:20.917Z,1018.4
2022-08-29T11:43:20.506Z,1018.3
2022-08-29T11:48:20.775Z,1018.3
2022-08-29T11:53:21.105Z,1018.4
2022-08-29T11:58:20.496Z,1018.4
2022-08-29T12:03:28.612Z,1018.4
2022-08-29T12:08:35.946Z,1018.4
2022-08-29T12:13:20.332Z,1018.5
2022-08-29T12:18:20.465Z,1018.5
2022-08-29T12:23:20.764Z,1018.6
2022-08-29T12:28:20.987Z,1018.6
2022-08-29T12:33:20.195Z,1018.6
2022-08-29T12:38:20.458Z,1018.6
2022-08-29T12:43:20.554Z,1018.7
2022-08-29T12:48:20.704Z,1018.7
2022-08-29T12:53:20.923Z,1018.9
2022-08-29T12:58:20.964Z,1018.9
2022-08-29T13:03:20.203Z,1018.9
2022-08-29T13:08:20.758Z,1018.9
2022-08-29T13:13:21.049Z,1018.9
2022-08-29T13:18:20.325Z,1018.9
2022-08-29T13:23:20.440Z,1018.8
2022-08-29T13:28:21.232Z,1018.8
2022-08-29T13:33:27.012Z,1018.8
2022-08-29T13:38:20.364Z,1018.8
2022-08-29T13:43:20.582Z,1018.8
2022-08-29T13:48:20.721Z,1018.8
2022-08-29T13:53:21.058Z,1018.8
2022-08-29T13:58:20.921Z,1018.8
2022-08-29T14:03:20.620Z,1018.8
2022-08-29T14:08:20.460Z,1018.8
2022-08-29T14:13:20.660Z,1018.9
2022-08-29T14:18:20.791Z,1018.9
2022-08-29T14:23:23.238Z,1018.9
2022-08-29T14:28:21.065Z,1018.9
2022-08-29T14:33:20.347Z,1018.9
2022-08-29T14:38:20.509Z,1018.9
2022-08-29T14:43:20.970Z,1018.9
2022-08-29T14:48:20.744Z,1018.9
2022-08-29T14:53:20.959Z,1018.7
2022-08-29T14:58:20.585Z,1018.7
2022-08-29T15:03:21.095Z,1018.7
2022-08-29T15:08:20.778Z,1018.7
2022-08-29T15:13:21.046Z,1018.7
2022-08-29T15:19:00.672Z,1018.7
2022-08-29T15:23:20.998Z,1018.8
2022-08-29T15:28:20.753Z,1018.8
2022-08-29T15:33:21.099Z,1018.8
2022-08-29T15:38:20.695Z,1018.8
2022-08-29T15:43:20.679Z,1018.8
2022-08-29T15:48:20.453Z,1018.8
2022-08-29T15:53:20.898Z,1018.8
2022-08-29T15:58:21.187Z,1018.8
2022-08-29T16:03:20.625Z,1018.8
2022-08-29T16:08:20.870Z,1018.8
2022-08-29T16:13:26.092Z,1018.8
2022-08-29T16:18:20.268Z,1018.8
2022-08-29T16:23:20.427Z,1018.8
2022-08-29T16:28:21.124Z,1018.8
2022-08-29T16:33:20.517Z,1018.8
2022-08-29T16:38:20.702Z,1018.8
2022-08-29T16:43:21.032Z,1018.9
2022-08-29T16:48:21.446Z,1018.9
2022-08-29T16:53:21.212Z,1018.9
2022-08-29T16:58:20.366Z,1018.9
2022-08-29T17:03:20.677Z,1018.9
2022-08-29T17:08:21.063Z,1018.9
2022-08-29T17:13:20.400Z,1018.9
2022-08-29T17:18:20.652Z,1018.9
2022-08-29T17:23:20.856Z,1018.8
2022-08-29T17:28:21.325Z,1018.8
2022-08-29T17:33:20.580Z,1018.8
2022-08-29T17:38:20.835Z,1018.8
2022-08-29T17:43:21.009Z,1018.7
2022-08-29T17:48:20.290Z,1018.7
2022-08-29T17:53:20.441Z,1018.8
2022-08-29T17:58:21.091Z,1018.8
2022-08-29T18:03:21.296Z,1018.8
2022-08-29T18:08:20.490Z,1018.8
2022-08-29T18:13:21.954Z,1018.8
2022-08-29T18:18:20.368Z,1018.8
2022-08-29T18:23:20.562Z,1018.9
2022-08-29T18:28:20.793Z,1018.9
2022-08-29T18:33:20.956Z,1018.9
2022-08-29T18:38:21.100Z,1018.9
2022-08-29T18:43:21.259Z,1018.9
2022-08-29T18:48:20.599Z,1018.9
2022-08-29T18:53:20.858Z,1019
2022-08-29T18:58:20.906Z,1019
2022-08-29T19:03:21.076Z,1019
2022-08-29T19:08:21.465Z,1019
2022-08-29T19:13:20.599Z,1019.3
2022-08-29T19:18:20.754Z,1019.3
2022-08-29T19:23:21.101Z,1019.4
2022-08-29T19:28:20.559Z,1019.4
2022-08-29T19:33:20.713Z,1019.4
2022-08-29T19:38:21.178Z,1019.4
2022-08-29T19:43:20.629Z,1019.3
2022-08-29T19:48:20.899Z,1019.3
2022-08-29T19:53:26.557Z,1019.3
2022-08-29T19:58:21.260Z,1019.3
2022-08-29T20:03:20.581Z,1019.3
2022-08-29T20:08:21.258Z,1019.3
2022-08-29T20:13:20.440Z,1019.2
2022-08-29T20:18:20.720Z,1019.2
2022-08-29T20:23:20.813Z,1019.1
2022-08-29T20:28:20.548Z,1019.1
2022-08-29T20:33:20.877Z,1019.1
2022-08-29T20:38:20.966Z,1019.1
2022-08-29T20:43:20.483Z,1019.3
2022-08-29T20:48:20.662Z,1019.3
2022-08-29T20:53:32.355Z,1019.3
2022-08-29T20:58:20.836Z,1019.3
2022-08-29T21:03:20.802Z,1019.3
2022-08-29T21:08:21.247Z,1019.3
2022-08-29T21:13:21.015Z,1019.5
2022-08-29T21:18:21.247Z,1019.5
2022-08-29T21:23:21.364Z,1019.4
2022-08-29T21:28:20.832Z,1019.4
2022-08-29T21:33:21.031Z,1019.4
2022-08-29T21:38:21.369Z,1019.4
2022-08-29T21:43:20.777Z,1019.4
2022-08-29T21:48:21.026Z,1019.4
2022-08-29T21:53:21.290Z,1019.4
2022-08-29T21:58:20.614Z,1019.4
2022-08-29T22:03:20.961Z,1019.4
2022-08-29T22:08:21.246Z,1019.4
2022-08-29T22:13:20.857Z,1019.4
2022-08-29T22:18:21.061Z,1019.4
2022-08-29T22:23:21.263Z,1019.4
2022-08-29T22:28:21.423Z,1019.4
2022-08-29T22:33:21.140Z,1019.5
2022-08-29T22:38:20.608Z,1019.5
2022-08-29T22:43:20.797Z,1019.6
2022-08-29T22:48:21.123Z,1019.6
2022-08-29T22:58:21.234Z,1019.6
2022-08-29T23:03:21.328Z,1019.6
2022-08-29T23:08:20.591Z,1019.6
2022-08-29T23:13:20.677Z,1019.5
2022-08-29T23:18:20.726Z,1019.5
2022-08-29T23:23:21.192Z,1019.5
2022-08-29T23:28:20.651Z,1019.5
2022-08-29T23:33:20.892Z,1019.5
2022-08-29T23:38:21.304Z,1019.5
2022-08-29T23:43:21.115Z,1019.5
2022-08-29T23:48:25.852Z,1019.5
2022-08-29T23:53:20.508Z,1019.6
2022-08-29T23:58:21.014Z,1019.6
